createdAt,value
2022-09-13T00:00:20.443Z,98.50
2022-09-13T00:02:51.231Z,98.50
2022-09-13T00:05:21.992Z,98.80
2022-09-13T00:07:52.770Z,98.70
2022-09-13T00:10:23.776Z,98.70
2022-09-13T00:12:55.186Z,98.90
2022-09-13T00:15:27.589Z,98.50
2022-09-13T00:17:58.460Z,98.60
2022-09-13T00:20:29.495Z,99.10
2022-09-13T00:23:00.248Z,99.10
2022-09-13T00:25:31.014Z,99.70
2022-09-13T00:28:01.944Z,99.80
2022-09-13T00:30:35.059Z,99.20
2022-09-13T00:33:05.929Z,99.40
2022-09-13T00:35:36.731Z,98.20
2022-09-13T00:38:08.898Z,98.00
2022-09-13T00:40:42.160Z,99.30
2022-09-13T00:43:20.251Z,99.30
2022-09-13T00:45:52.880Z,99.90
2022-09-13T00:48:26.448Z,99.70
2022-09-13T00:50:59.156Z,98.80
2022-09-13T00:53:31.914Z,99.20
2022-09-13T00:56:06.111Z,98.90
2022-09-13T00:58:40.561Z,99.30
2022-09-13T01:01:16.451Z,99.30
2022-09-13T01:03:49.948Z,98.70
2022-09-13T01:06:30.873Z,99.50
2022-09-13T01:09:04.051Z,99.70
2022-09-13T01:11:42.307Z,99.90
2022-09-13T01:14:13.463Z,99.90
2022-09-13T01:16:47.876Z,99.90
2022-09-13T01:19:19.448Z,99.50
2022-09-13T01:22:18.704Z,99.70
2022-09-13T01:25:25.013Z,99.90
2022-09-13T01:28:15.166Z,99.60
2022-09-13T01:30:54.177Z,99.90
2022-09-13T01:33:44.728Z,99.90
2022-09-13T01:36:35.229Z,99.90
2022-09-13T01:39:08.207Z,99.90
2022-09-13T01:42:01.032Z,99.90
2022-09-13T01:44:49.467Z,99.90
2022-09-13T01:47:30.117Z,99.90
2022-09-13T01:50:12.491Z,99.90
2022-09-13T01:52:51.915Z,99.90
2022-09-13T01:55:30.994Z,99.90
2022-09-13T01:58:10.184Z,99.90
2022-09-13T02:00:48.158Z,99.90
2022-09-13T02:03:23.527Z,99.90
2022-09-13T02:06:00.722Z,99.90
2022-09-13T02:08:38.497Z,99.90
2022-09-13T02:11:13.392Z,99.90
2022-09-13T02:13:49.771Z,99.90
2022-09-13T02:16:29.271Z,99.90
2022-09-13T02:19:05.382Z,99.90
2022-09-13T02:21:41.639Z,99.90
2022-09-13T02:24:16.832Z,99.90
2022-09-13T02:26:50.841Z,99.90
2022-09-13T02:29:25.351Z,99.90
2022-09-13T02:32:02.777Z,99.90
2022-09-13T02:34:40.990Z,99.90
2022-09-13T02:37:14.052Z,99.90
2022-09-13T02:39:49.954Z,99.90
2022-09-13T02:42:25.111Z,99.90
2022-09-13T02:44:58.729Z,99.90
2022-09-13T02:47:41.377Z,99.90
2022-09-13T02:50:28.823Z,99.90
2022-09-13T02:53:08.526Z,99.90
2022-09-13T02:55:46.167Z,99.90
2022-09-13T02:58:26.409Z,99.90
2022-09-13T03:00:58.277Z,99.90
2022-09-13T03:03:29.166Z,99.90
2022-09-13T03:06:02.159Z,99.90
2022-09-13T03:08:33.449Z,99.90
2022-09-13T03:11:13.385Z,99.90
2022-09-13T03:14:10.606Z,99.90
2022-09-13T03:16:55.979Z,99.90
2022-09-13T03:19:53.908Z,99.90
2022-09-13T03:22:50.110Z,99.90
2022-09-13T03:25:28.829Z,99.90
2022-09-13T03:28:11.504Z,99.90
2022-09-13T03:30:48.237Z,99.90
2022-09-13T03:33:27.565Z,99.90
2022-09-13T03:36:05.571Z,99.90
2022-09-13T03:38:43.729Z,99.90
2022-09-13T03:41:17.859Z,99.90
2022-09-13T03:43:52.670Z,99.90
2022-09-13T03:46:30.135Z,99.90
2022-09-13T03:49:03.562Z,99.90
2022-09-13T03:51:35.309Z,99.90
2022-09-13T03:54:11.106Z,99.90
2022-09-13T03:56:41.875Z,99.90
2022-09-13T03:59:12.657Z,99.90
2022-09-13T04:01:44.711Z,99.90
2022-09-13T04:04:17.926Z,99.90
2022-09-13T04:06:48.704Z,99.90
2022-09-13T04:09:21.110Z,99.90
2022-09-13T04:11:51.954Z,99.90
2022-09-13T04:14:23.822Z,99.90
2022-09-13T04:16:54.643Z,99.90
2022-09-13T04:19:25.909Z,99.90
2022-09-13T04:21:58.341Z,99.90
2022-09-13T04:24:32.147Z,99.90
2022-09-13T04:27:04.012Z,99.90
2022-09-13T04:29:35.018Z,99.90
2022-09-13T04:32:06.553Z,99.90
2022-09-13T04:34:37.850Z,99.90
2022-09-13T04:37:08.942Z,99.90
2022-09-13T04:39:41.445Z,99.90
2022-09-13T04:42:12.852Z,99.90
2022-09-13T04:44:43.652Z,99.90
2022-09-13T04:47:14.611Z,99.90
2022-09-13T04:49:45.376Z,99.90
2022-09-13T04:52:16.132Z,99.90
2022-09-13T04:54:48.610Z,99.90
2022-09-13T04:57:19.390Z,99.90
2022-09-13T04:59:50.174Z,99.90
2022-09-13T05:02:21.033Z,99.90
2022-09-13T05:04:51.888Z,99.90
2022-09-13T05:07:22.753Z,99.90
2022-09-13T05:09:55.163Z,99.90
2022-09-13T05:12:25.939Z,99.90
2022-09-13T05:14:56.671Z,99.90
2022-09-13T05:17:28.167Z,99.90
2022-09-13T05:19:58.926Z,99.90
2022-09-13T05:22:29.736Z,99.90
2022-09-13T05:25:02.157Z,99.90
2022-09-13T05:27:32.923Z,99.90
2022-09-13T05:30:05.502Z,99.90
2022-09-13T05:32:36.291Z,99.90
2022-09-13T05:35:07.446Z,99.90
2022-09-13T05:37:38.248Z,99.90
2022-09-13T05:40:12.825Z,99.90
2022-09-13T05:42:43.766Z,99.90
2022-09-13T05:45:14.775Z,99.90
2022-09-13T05:47:46.273Z,99.90
2022-09-13T05:50:33.195Z,99.90
2022-09-13T05:53:07.964Z,99.90
2022-09-13T05:55:40.373Z,99.90
2022-09-13T05:58:11.177Z,99.90
2022-09-13T06:00:42.009Z,99.90
2022-09-13T06:03:12.968Z,99.90
2022-09-13T06:05:43.808Z,99.90
2022-09-13T06:08:14.590Z,99.90
2022-09-13T06:10:46.995Z,99.90
2022-09-13T06:13:17.795Z,99.90
2022-09-13T06:15:48.642Z,99.90
2022-09-13T06:18:19.481Z,99.90
2022-09-13T06:20:51.622Z,99.90
2022-09-13T06:23:22.375Z,99.90
2022-09-13T06:26:02.054Z,99.90
2022-09-13T06:28:37.154Z,99.90
2022-09-13T06:31:10.157Z,99.90
2022-09-13T06:33:42.630Z,99.90
2022-09-13T06:36:15.968Z,99.90
2022-09-13T06:38:47.113Z,99.90
2022-09-13T06:41:20.876Z,99.90
2022-09-13T06:43:55.393Z,99.90
2022-09-13T06:46:26.280Z,99.90
2022-09-13T06:48:58.638Z,99.90
2022-09-13T06:51:30.523Z,99.90
2022-09-13T06:54:02.094Z,99.90
2022-09-13T06:56:35.901Z,99.90
2022-09-13T06:59:09.278Z,99.90
2022-09-13T07:01:41.371Z,99.90
2022-09-13T07:04:14.035Z,99.90
2022-09-13T07:06:46.463Z,99.90
2022-09-13T07:09:19.684Z,99.90
2022-09-13T07:11:53.149Z,99.90
2022-09-13T07:14:26.188Z,99.90
2022-09-13T07:16:57.535Z,99.90
2022-09-13T07:19:29.960Z,99.90
2022-09-13T07:22:00.956Z,99.90
2022-09-13T07:24:31.716Z,99.90
2022-09-13T07:27:04.138Z,99.90
2022-09-13T07:29:34.894Z,99.90
2022-09-13T07:32:05.846Z,99.90
2022-09-13T07:34:36.753Z,99.90
2022-09-13T07:37:07.564Z,99.90
2022-09-13T07:39:38.302Z,99.90
2022-09-13T07:42:10.835Z,99.90
2022-09-13T07:44:41.658Z,99.90
2022-09-13T07:47:12.394Z,99.90
2022-09-13T07:49:43.219Z,99.90
2022-09-13T07:52:13.993Z,99.90
2022-09-13T07:54:44.903Z,99.90
2022-09-13T07:57:17.554Z,99.90
2022-09-13T07:59:48.417Z,99.90
2022-09-13T08:02:21.125Z,99.90
2022-09-13T08:04:51.909Z,99.90
2022-09-13T08:07:22.696Z,99.90
2022-09-13T08:09:53.455Z,99.90
2022-09-13T08:12:25.852Z,99.90
2022-09-13T08:14:56.686Z,99.90
2022-09-13T08:17:27.480Z,99.90
2022-09-13T08:19:58.264Z,99.90
2022-09-13T08:22:28.994Z,99.90
2022-09-13T08:24:59.759Z,99.90
2022-09-13T08:27:32.351Z,99.90
2022-09-13T08:30:03.358Z,99.90
2022-09-13T08:32:34.136Z,99.90
2022-09-13T08:35:05.046Z,99.90
2022-09-13T08:37:36.819Z,99.90
2022-09-13T08:40:08.174Z,99.90
2022-09-13T08:42:55.174Z,99.90
2022-09-13T08:45:26.372Z,99.90
2022-09-13T08:48:01.616Z,99.90
2022-09-13T08:50:35.338Z,99.90
2022-09-13T08:53:18.488Z,99.90
2022-09-13T08:56:04.407Z,99.90
2022-09-13T08:58:57.367Z,99.90
2022-09-13T09:01:40.907Z,99.90
2022-09-13T09:04:23.310Z,99.90
2022-09-13T09:07:05.950Z,99.90
2022-09-13T09:09:40.747Z,99.90
2022-09-13T09:12:21.070Z,99.90
2022-09-13T09:15:01.669Z,99.90
2022-09-13T09:17:40.371Z,99.90
2022-09-13T09:20:24.258Z,99.90
2022-09-13T09:22:56.032Z,99.90
2022-09-13T09:25:28.584Z,99.90
2022-09-13T09:28:00.756Z,99.90
2022-09-13T09:30:42.363Z,99.90
2022-09-13T09:33:26.595Z,99.90
2022-09-13T09:36:06.467Z,99.90
2022-09-13T09:38:42.170Z,99.90
2022-09-13T09:41:26.522Z,99.90
2022-09-13T09:44:02.903Z,99.90
2022-09-13T09:46:38.515Z,99.90
2022-09-13T09:49:31.394Z,99.90
2022-09-13T09:52:04.040Z,99.90
2022-09-13T09:54:35.891Z,99.90
2022-09-13T09:57:07.826Z,99.90
2022-09-13T09:59:38.699Z,99.90
2022-09-13T10:02:19.794Z,99.90
2022-09-13T10:04:59.178Z,99.90
2022-09-13T10:07:33.529Z,99.90
2022-09-13T10:10:09.105Z,99.90
2022-09-13T10:12:42.628Z,99.90
2022-09-13T10:15:20.299Z,99.90
2022-09-13T10:21:10.435Z,99.90
2022-09-13T10:23:41.342Z,99.90
2022-09-13T10:26:14.699Z,99.90
2022-09-13T10:28:49.578Z,99.90
2022-09-13T10:31:22.579Z,99.90
2022-09-13T10:34:02.882Z,99.90
2022-09-13T10:36:52.149Z,99.90
2022-09-13T10:39:25.008Z,99.90
2022-09-13T10:41:59.046Z,99.90
2022-09-13T10:44:41.243Z,99.90
2022-09-13T10:47:24.822Z,99.90
2022-09-13T10:49:58.748Z,99.90
2022-09-13T10:52:33.398Z,99.90
2022-09-13T10:55:37.802Z,99.90
2022-09-13T10:58:27.735Z,99.90
2022-09-13T11:01:29.318Z,99.90
2022-09-13T11:04:43.803Z,99.90
2022-09-13T11:07:48.507Z,99.90
2022-09-13T11:10:24.891Z,99.90
2022-09-13T11:13:05.191Z,99.90
2022-09-13T11:15:50.879Z,99.90
2022-09-13T11:18:40.445Z,99.90
2022-09-13T11:21:25.018Z,99.90
2022-09-13T11:24:15.716Z,99.90
2022-09-13T11:26:55.341Z,99.90
2022-09-13T11:29:42.609Z,99.90
2022-09-13T11:32:29.163Z,99.90
2022-09-13T11:35:21.110Z,99.90
2022-09-13T11:38:00.756Z,99.90
2022-09-13T11:40:45.646Z,99.90
2022-09-13T11:43:41.661Z,99.90
2022-09-13T11:46:22.111Z,99.90
2022-09-13T11:49:22.647Z,99.90
2022-09-13T11:52:01.875Z,99.90
2022-09-13T11:54:55.975Z,99.90
2022-09-13T11:57:34.137Z,99.90
2022-09-13T12:00:09.027Z,99.90
2022-09-13T12:02:46.771Z,99.90
2022-09-13T12:05:24.392Z,99.90
2022-09-13T12:08:00.334Z,99.90
2022-09-13T12:10:36.468Z,99.90
2022-09-13T12:13:13.373Z,99.90
2022-09-13T12:15:46.279Z,99.90
2022-09-13T12:18:21.925Z,99.90
2022-09-13T12:20:56.179Z,99.90
2022-09-13T12:23:34.253Z,99.90
2022-09-13T12:26:09.732Z,99.90
2022-09-13T12:28:47.390Z,99.90
2022-09-13T12:31:21.399Z,99.90
2022-09-13T12:33:52.631Z,99.90
2022-09-13T12:36:43.626Z,99.90
2022-09-13T12:39:57.058Z,99.90
2022-09-13T12:43:00.236Z,99.90
2022-09-13T12:45:44.470Z,99.90
2022-09-13T12:48:29.778Z,99.90
2022-09-13T12:51:10.794Z,99.90
2022-09-13T12:54:20.047Z,99.90
2022-09-13T12:57:11.753Z,99.90
2022-09-13T13:00:05.130Z,99.90
2022-09-13T13:02:40.153Z,99.90
2022-09-13T13:05:24.391Z,99.90
2022-09-13T13:07:57.655Z,99.90
2022-09-13T13:10:32.337Z,99.90
2022-09-13T13:13:17.640Z,99.90
2022-09-13T13:16:05.568Z,99.90
2022-09-13T13:18:49.417Z,99.90
2022-09-13T13:21:39.020Z,99.90
2022-09-13T13:24:48.114Z,99.90
2022-09-13T13:27:48.560Z,99.90
2022-09-13T13:30:45.496Z,99.90
2022-09-13T13:33:24.634Z,99.90
2022-09-13T13:35:57.919Z,99.90
2022-09-13T13:38:55.252Z,99.90
2022-09-13T13:41:55.906Z,99.90
2022-09-13T13:45:11.178Z,99.90
2022-09-13T13:48:03.401Z,99.90
2022-09-13T13:50:36.349Z,99.90
2022-09-13T13:53:36.626Z,99.90
2022-09-13T13:56:20.479Z,99.90
2022-09-13T13:58:54.224Z,99.90
2022-09-13T14:01:28.570Z,99.90
2022-09-13T14:04:49.652Z,99.90
2022-09-13T14:07:51.399Z,99.90
2022-09-13T14:10:28.223Z,99.90
2022-09-13T14:13:18.983Z,99.90
2022-09-13T14:15:58.391Z,99.90
2022-09-13T14:18:54.716Z,99.90
2022-09-13T14:21:27.532Z,99.90
2022-09-13T14:24:18.166Z,99.90
2022-09-13T14:26:51.849Z,99.90
2022-09-13T14:29:28.983Z,99.90
2022-09-13T14:32:16.977Z,99.90
2022-09-13T14:34:57.185Z,99.90
2022-09-13T14:37:31.838Z,99.90
2022-09-13T14:40:05.571Z,99.90
2022-09-13T14:42:45.944Z,99.90
2022-09-13T14:45:17.947Z,99.90
2022-09-13T14:47:55.718Z,99.90
2022-09-13T14:50:29.412Z,99.90
2022-09-13T14:53:02.946Z,99.90
2022-09-13T14:55:36.418Z,99.90
2022-09-13T14:58:16.960Z,99.90
2022-09-13T15:00:54.647Z,99.90
2022-09-13T15:03:25.954Z,99.90
2022-09-13T15:05:59.402Z,99.90
2022-09-13T15:08:43.724Z,99.90
2022-09-13T15:11:18.425Z,99.90
2022-09-13T15:14:03.246Z,99.90
2022-09-13T15:16:35.086Z,99.90
2022-09-13T15:19:32.561Z,99.90
2022-09-13T15:22:08.004Z,99.90
2022-09-13T15:24:40.115Z,99.90
2022-09-13T15:27:22.095Z,99.90
2022-09-13T15:29:56.428Z,99.90
2022-09-13T15:32:35.591Z,99.90
2022-09-13T15:35:06.579Z,99.90
2022-09-13T15:37:39.854Z,99.90
2022-09-13T15:40:21.952Z,99.90
2022-09-13T15:42:54.036Z,99.90
2022-09-13T15:45:26.520Z,99.90
2022-09-13T15:47:57.410Z,99.90
2022-09-13T15:50:31.723Z,99.90
2022-09-13T15:53:03.726Z,99.90
2022-09-13T15:55:34.664Z,99.90
2022-09-13T15:58:05.485Z,99.90
2022-09-13T16:00:37.949Z,99.90
2022-09-13T16:03:08.786Z,99.90
2022-09-13T16:05:39.533Z,99.90
2022-09-13T16:08:12.263Z,99.90
2022-09-13T16:10:43.051Z,99.90
2022-09-13T16:13:15.529Z,99.90
2022-09-13T16:15:48.659Z,99.90
2022-09-13T16:18:19.548Z,99.90
2022-09-13T16:20:50.327Z,99.90
2022-09-13T16:23:21.097Z,99.90
2022-09-13T16:25:52.994Z,99.90
2022-09-13T16:28:24.379Z,99.90
2022-09-13T16:30:57.343Z,99.90
2022-09-13T16:33:28.243Z,99.90
2022-09-13T16:36:02.099Z,99.90
2022-09-13T16:38:33.244Z,99.90
2022-09-13T16:41:06.916Z,99.90
2022-09-13T16:43:37.983Z,99.90
2022-09-13T16:46:14.411Z,99.90
2022-09-13T16:48:45.413Z,99.90
2022-09-13T16:51:17.214Z,99.90
2022-09-13T16:53:48.007Z,99.90
2022-09-13T16:56:20.135Z,99.90
2022-09-13T16:58:51.257Z,99.90
2022-09-13T17:01:24.932Z,99.90
2022-09-13T17:03:56.399Z,99.90
2022-09-13T17:06:29.523Z,99.90
2022-09-13T17:09:02.998Z,99.90
2022-09-13T17:11:36.148Z,99.90
2022-09-13T17:14:08.866Z,99.90
2022-09-13T17:16:43.428Z,99.90
2022-09-13T17:19:19.500Z,99.90
2022-09-13T17:21:50.840Z,99.90
2022-09-13T17:24:21.782Z,99.90
2022-09-13T17:26:52.529Z,99.90
2022-09-13T17:29:23.235Z,99.90
2022-09-13T17:31:55.863Z,99.90
2022-09-13T17:34:26.623Z,99.10
2022-09-13T17:36:57.946Z,99.00
2022-09-13T17:39:28.728Z,99.50
2022-09-13T17:41:59.524Z,96.10
2022-09-13T17:44:30.273Z,96.10
2022-09-13T17:47:03.199Z,97.80
2022-09-13T17:49:33.923Z,98.10
2022-09-13T17:52:04.813Z,97.30
2022-09-13T17:54:35.555Z,96.50
2022-09-13T17:57:06.422Z,95.90
2022-09-13T17:59:37.644Z,96.00
2022-09-13T18:02:12.715Z,95.40
2022-09-13T18:04:43.547Z,95.70
2022-09-13T18:07:14.419Z,95.00
2022-09-13T18:09:46.269Z,96.40
2022-09-13T18:12:17.076Z,96.80
2022-09-13T18:14:47.874Z,95.20
2022-09-13T18:17:21.278Z,96.20
2022-09-13T18:19:52.018Z,94.90
2022-09-13T18:22:22.768Z,94.60
2022-09-13T18:24:53.517Z,93.80
2022-09-13T18:27:24.296Z,95.40
2022-09-13T18:29:55.003Z,94.00
2022-09-13T18:32:27.484Z,92.90
2022-09-13T18:34:58.213Z,90.80
2022-09-13T18:37:28.964Z,89.80
2022-09-13T18:39:59.747Z,84.80
2022-09-13T18:42:33.290Z,84.40
2022-09-13T18:45:04.263Z,82.10
2022-09-13T18:47:36.727Z,84.90
2022-09-13T18:50:11.518Z,85.40
2022-09-13T18:52:44.118Z,84.30
2022-09-13T18:55:14.893Z,80.70
2022-09-13T18:57:45.616Z,81.10
2022-09-13T19:00:16.579Z,77.10
2022-09-13T19:03:08.858Z,76.70
2022-09-13T19:05:42.546Z,73.80
2022-09-13T19:08:13.784Z,76.60
2022-09-13T19:10:44.584Z,80.00
2022-09-13T19:13:15.336Z,78.40
2022-09-13T19:15:46.189Z,76.60
2022-09-13T19:18:18.683Z,76.10
2022-09-13T19:20:49.411Z,76.10
2022-09-13T19:23:20.623Z,74.30
2022-09-13T19:25:51.358Z,79.30
2022-09-13T19:28:22.124Z,77.20
2022-09-13T19:30:53.239Z,75.20
2022-09-13T19:33:25.716Z,74.40
2022-09-13T19:35:56.543Z,75.80
2022-09-13T19:38:27.389Z,77.80
2022-09-13T19:41:01.816Z,75.10
2022-09-13T19:43:34.118Z,72.80
2022-09-13T19:46:06.360Z,74.20
2022-09-13T19:48:42.202Z,75.40
2022-09-13T19:51:15.815Z,76.90
2022-09-13T19:53:56.964Z,76.70
2022-09-13T19:56:29.776Z,74.20
2022-09-13T19:59:01.605Z,76.80
2022-09-13T20:01:34.403Z,78.20
2022-09-13T20:04:08.738Z,76.40
2022-09-13T20:06:40.942Z,76.30
2022-09-13T20:09:15.559Z,79.40
2022-09-13T20:11:48.218Z,81.90
2022-09-13T20:14:21.083Z,78.10
2022-09-13T20:16:51.839Z,78.00
2022-09-13T20:19:40.665Z,79.20
2022-09-13T20:22:12.547Z,77.10
2022-09-13T20:24:43.425Z,80.80
2022-09-13T20:27:14.248Z,81.70
2022-09-13T20:29:45.096Z,81.20
2022-09-13T20:32:15.878Z,80.00
2022-09-13T20:34:50.778Z,77.60
2022-09-13T20:37:23.284Z,78.50
2022-09-13T20:39:54.520Z,79.20
2022-09-13T20:42:25.285Z,78.40
2022-09-13T20:44:58.890Z,75.70
2022-09-13T20:47:30.092Z,76.80
2022-09-13T20:50:05.327Z,79.80
2022-09-13T20:52:36.135Z,80.00
2022-09-13T20:55:07.305Z,81.40
2022-09-13T20:57:38.189Z,79.10
2022-09-13T21:00:10.519Z,80.70
2022-09-13T21:02:41.325Z,80.90
2022-09-13T21:05:13.962Z,79.50
2022-09-13T21:08:01.143Z,81.10
2022-09-13T21:10:32.313Z,80.50
2022-09-13T21:13:03.038Z,82.40
2022-09-13T21:15:33.835Z,81.80
2022-09-13T21:18:04.548Z,81.10
2022-09-13T21:20:36.961Z,80.80
2022-09-13T21:23:07.723Z,81.20
2022-09-13T21:25:39.848Z,82.10
2022-09-13T21:28:11.689Z,82.80
2022-09-13T21:30:43.046Z,81.50
2022-09-13T21:33:14.043Z,82.30
2022-09-13T21:35:46.460Z,82.90
2022-09-13T21:38:17.204Z,83.60
2022-09-13T21:40:57.226Z,79.10
2022-09-13T21:43:28.807Z,79.60
2022-09-13T21:46:04.854Z,80.80
2022-09-13T21:48:36.637Z,80.70
2022-09-13T21:51:11.390Z,82.60
2022-09-13T21:53:42.702Z,80.80
2022-09-13T21:56:15.954Z,80.90
2022-09-13T21:58:52.286Z,81.20
2022-09-13T22:01:25.174Z,84.80
2022-09-13T22:03:56.624Z,81.40
2022-09-13T22:06:33.667Z,83.60
2022-09-13T22:09:08.208Z,83.30
2022-09-13T22:11:42.037Z,81.20
2022-09-13T22:14:15.058Z,79.30
2022-09-13T22:16:47.297Z,76.70
2022-09-13T22:19:21.826Z,77.10
2022-09-13T22:21:57.919Z,74.30
2022-09-13T22:24:30.595Z,77.40
2022-09-13T22:27:02.027Z,75.40
2022-09-13T22:29:32.799Z,77.50
2022-09-13T22:32:03.693Z,76.20
2022-09-13T22:34:35.771Z,79.00
2022-09-13T22:37:08.531Z,80.00
2022-09-13T22:39:39.620Z,81.50
2022-09-13T22:42:10.661Z,80.00
2022-09-13T22:44:41.415Z,79.00
2022-09-13T22:47:12.159Z,80.20
2022-09-13T22:49:42.909Z,78.10
2022-09-13T22:52:15.301Z,76.30
2022-09-13T22:54:47.047Z,74.90
2022-09-13T22:57:17.894Z,77.60
2022-09-13T22:59:48.634Z,77.00
2022-09-13T23:02:19.399Z,78.70
2022-09-13T23:04:50.232Z,78.60
2022-09-13T23:07:22.575Z,77.10
2022-09-13T23:09:53.340Z,81.80
2022-09-13T23:12:24.163Z,82.40
2022-09-13T23:14:54.886Z,86.40
2022-09-13T23:17:25.613Z,86.90
2022-09-13T23:19:56.385Z,82.00
2022-09-13T23:22:28.752Z,82.60
2022-09-13T23:24:59.472Z,86.20
2022-09-13T23:27:30.221Z,84.90
2022-09-13T23:30:01.095Z,84.00
2022-09-13T23:32:31.962Z,84.90
2022-09-13T23:35:02.830Z,87.20
2022-09-13T23:37:35.259Z,86.50
2022-09-13T23:40:06.433Z,88.60
2022-09-13T23:42:37.231Z,89.20
2022-09-13T23:45:09.024Z,86.90
2022-09-13T23:47:39.772Z,87.40
2022-09-13T23:50:11.589Z,86.90
2022-09-13T23:52:44.030Z,88.50
2022-09-13T23:55:15.073Z,86.30
2022-09-13T23:57:45.862Z,86.70
